Main page
Satellite images 15-day forecastsClimateMarine weather Cyclones Lightning AirportsFAQ Newsletter About
Weather : Europe Africa North America South America Asia Australia-Oceania Others
Languages Contact

Mexicali, Mexico

General Rodolfo Sánchez Taboada

latitude: 32-37-50N, longitude: 115-14-30W, elevation: 22 m


METAR: MMML 240047Z 29007KT 10SM BKN200 29/M07 A2980 RMK 8/002
short-TAF: out of date (46967 hours)
long-TAF: MMML 231705Z 2318/2418 34012KT P6SM SCT200 FM240300 00000KT P6SM SCT250 FM241500 30012KT P6SM SCT250

Time: 20:11 (01:11 UTC)

Current weather observation

The report was made 24 minutes ago, at 00:47 UTC  
Wind 07 kt from west/northwest
Temperature 29°C
Humidity 9%
Pressure 1009 hPa
Visibility 16.1 km
Broken clouds at a height of 20000 ft

Change units

Forecast

The report was made 7 hours and 59 minutes ago, at 17:12 UTC  
Forecast valid from 23 at 18 UTC to 24 at 18 UTC
Wind 12 kt from north/northwest
Visibility 10 km
Scattered clouds at a height of 20000 ft
From 24 at 0300 UTC
Wind 00 kt from north
Visibility 10 km
Scattered clouds at a height of 25000 ft
From 24 at 1500 UTC
Wind 12 kt from west/northwest
Visibility 10 km
Scattered clouds at a height of 25000 ft
The information on this site is subject to a disclaimer
Weather : Europe Africa North America South America Asia Australia-Oceania Others
Satellite images 15-day forecastsClimateMarine weather Cyclones Lightning AirportsFAQ Languages Contact Newsletter About